Time;durP1;ratioP1;P1;durP2;ratioP2;P2;SDS_P1;SDS_P2;PMS_P1;PMS_P2;Temp;Humidity;BMP_temperature;BMP_pressure;BME280_temperature;BME280_humidity;BME280_pressure;Samples;Min_cycle;Max_cycle;Signal;HPM_P1;HPM_P2
2022/05/08 00:02:29;;;;;;;0.40;0.40;;;;;;;10.73;40.67;99589.88;4916546;29;20164;-86
2022/05/08 00:04:56;;;;;;;0.40;0.40;;;;;;;10.76;40.76;99594.84;4916634;29;20048;-85
2022/05/08 00:07:24;;;;;;;0.40;0.40;;;;;;;10.75;40.48;99593.16;4899275;29;20147;-86
2022/05/08 00:09:51;;;;;;;0.40;0.40;;;;;;;10.79;40.59;99591.66;4916194;29;20052;-86
2022/05/08 00:12:18;;;;;;;0.40;0.40;;;;;;;10.79;40.61;99590.84;4916061;29;20052;-87
2022/05/08 00:14:45;;;;;;;0.40;0.40;;;;;;;10.79;40.37;99583.56;4916494;29;20052;-87
2022/05/08 00:17:14;;;;;;;0.40;0.40;;;;;;;10.78;40.76;99590.00;4899857;29;20104;-89
2022/05/08 00:19:42;;;;;;;0.40;0.40;;;;;;;10.73;40.61;99584.47;4868768;29;20056;-87
2022/05/08 00:22:11;;;;;;;0.40;0.40;;;;;;;10.78;40.40;99587.31;4900829;29;20079;-87
2022/05/08 00:24:59;;;;;;;0.40;0.40;;;;;;;10.72;40.70;99574.75;4916584;29;20134;-86
2022/05/08 00:27:28;;;;;;;0.40;0.40;;;;;;;10.74;40.69;99574.53;4899528;29;20055;-87
2022/05/08 00:29:55;;;;;;;0.40;0.40;;;;;;;10.78;40.85;99587.31;4921105;29;20048;-88
2022/05/08 00:32:23;;;;;;;0.40;0.40;;;;;;;10.80;41.03;99585.19;4902504;29;20201;-86
2022/05/08 00:34:52;;;;;;;0.40;0.40;;;;;;;10.80;40.70;99581.69;4916806;29;20052;-86
2022/05/08 00:37:20;;;;;;;0.40;0.40;;;;;;;10.80;40.74;99574.41;4915574;29;20055;-86
2022/05/08 00:39:48;;;;;;;0.40;0.40;;;;;;;10.78;40.76;99573.81;4932596;29;20053;-86
2022/05/08 00:42:18;;;;;;;0.40;0.40;;;;;;;10.79;40.80;99570.06;4954027;29;20075;-86
2022/05/08 00:44:47;;;;;;;0.40;0.40;;;;;;;10.70;40.94;99557.94;4953097;29;20114;-86
2022/05/08 00:47:14;;;;;;;0.40;0.40;;;;;;;10.70;41.03;99557.94;4954090;29;20047;-86
2022/05/08 00:49:41;;;;;;;0.40;0.40;;;;;;;10.78;41.11;99568.41;4954047;29;20117;-86
2022/05/08 00:52:14;;;;;;;0.40;0.40;;;;;;;10.72;41.22;99555.03;4921605;29;20047;-86
2022/05/08 00:54:42;;;;;;;0.50;0.50;;;;;;;10.81;41.27;99564.41;4954087;29;20061;-86
2022/05/08 00:57:13;;;;;;;0.40;0.40;;;;;;;10.82;40.83;99561.50;4953885;29;20113;-88
2022/05/08 00:59:40;;;;;;;0.40;0.40;;;;;;;10.82;40.93;99560.69;4953689;29;20047;-87
2022/05/08 01:02:07;;;;;;;0.40;0.40;;;;;;;10.83;40.94;99563.13;4953290;28;20043;-87
2022/05/08 01:04:35;;;;;;;0.50;0.50;;;;;;;10.82;40.86;99550.69;4958084;29;20054;-85
2022/05/08 01:07:02;;;;;;;0.40;0.40;;;;;;;10.84;41.03;99548.59;4940560;29;20059;-87
2022/05/08 01:09:29;;;;;;;0.40;0.40;;;;;;;10.81;40.97;99549.06;4954057;29;20507;-87
2022/05/08 01:11:58;;;;;;;0.40;0.40;;;;;;;10.80;41.23;99542.00;4953494;29;20106;-86
2022/05/08 01:14:25;;;;;;;0.30;0.30;;;;;;;10.75;40.95;99543.75;4951971;29;20057;-86
2022/05/08 01:16:52;;;;;;;0.40;0.40;;;;;;;10.76;41.16;99540.84;4953676;29;20150;-87
2022/05/08 01:19:20;;;;;;;0.40;0.40;;;;;;;10.76;41.48;99535.44;4952876;29;20059;-87
2022/05/08 01:21:47;;;;;;;0.40;0.40;;;;;;;10.74;41.24;99521.34;4935985;29;20396;-87
2022/05/08 01:24:20;;;;;;;0.40;0.40;;;;;;;10.72;41.34;99534.25;4952175;29;20106;-87
2022/05/08 01:26:49;;;;;;;0.50;0.50;;;;;;;10.77;41.48;99536.25;4953167;29;20149;-86
2022/05/08 01:29:17;;;;;;;0.40;0.40;;;;;;;10.75;41.40;99541.88;4935868;29;20047;-87
2022/05/08 01:31:44;;;;;;;0.40;0.40;;;;;;;10.66;41.58;99519.00;4953490;29;20110;-85
2022/05/08 01:34:11;;;;;;;0.40;0.40;;;;;;;10.71;41.51;99527.22;4954791;29;20055;-88
2022/05/08 01:36:40;;;;;;;0.40;0.40;;;;;;;10.68;41.69;99537.63;4955314;29;20422;-87
2022/05/08 01:39:08;;;;;;;0.40;0.40;;;;;;;10.65;41.76;99522.72;4938307;29;20047;-86
2022/05/08 01:41:35;;;;;;;0.40;0.40;;;;;;;10.63;41.89;99520.28;4920991;29;20055;-87
2022/05/08 01:44:02;;;;;;;0.40;0.40;;;;;;;10.63;41.89;99536.47;4936281;29;20588;-87
2022/05/08 01:46:29;;;;;;;0.40;0.40;;;;;;;10.52;41.92;99510.28;4920504;29;20047;-86
2022/05/08 01:48:57;;;;;;;0.40;0.40;;;;;;;10.55;41.94;99517.06;4935921;29;20911;-86
2022/05/08 01:51:24;;;;;;;0.40;0.40;;;;;;;10.55;41.94;99526.00;4953044;29;20051;-86
2022/05/08 01:53:51;;;;;;;0.40;0.40;;;;;;;10.54;42.08;99527.06;4936721;29;20065;-86
2022/05/08 01:56:19;;;;;;;0.40;0.40;;;;;;;10.54;42.13;99534.34;4953000;29;20422;-86
2022/05/08 01:58:48;;;;;;;0.47;0.47;;;;;;;10.45;42.12;99517.63;4952925;29;20534;-87
2022/05/08 02:01:16;;;;;;;0.40;0.40;;;;;;;10.46;42.14;99518.47;4952864;29;20054;-87
2022/05/08 02:03:44;;;;;;;0.40;0.40;;;;;;;10.47;42.26;99509.31;4953387;29;20047;-87
2022/05/08 02:06:11;;;;;;;0.40;0.40;;;;;;;10.55;41.94;99519.78;4935465;29;20051;-88
2022/05/08 02:08:40;;;;;;;0.40;0.40;;;;;;;10.56;42.00;99519.56;4952724;29;20047;-86
2022/05/08 02:11:08;;;;;;;0.50;0.50;;;;;;;10.57;41.89;99528.47;4920318;29;20055;-87
2022/05/08 02:13:35;;;;;;;0.47;0.47;;;;;;;10.60;41.86;99534.22;4954219;28;20043;-87
2022/05/08 02:16:05;;;;;;;0.40;0.40;;;;;;;10.60;42.07;99528.00;4956736;29;20059;-87
2022/05/08 02:18:33;;;;;;;0.50;0.50;;;;;;;10.57;42.18;99525.78;4956225;29;20112;-86
2022/05/08 02:21:00;;;;;;;0.40;0.40;;;;;;;10.55;42.03;99517.06;4956684;29;20051;-86
2022/05/08 02:23:27;;;;;;;0.45;0.45;;;;;;;10.56;42.48;99516.03;4939316;29;20043;-86
2022/05/08 02:25:56;;;;;;;0.40;0.40;;;;;;;10.59;42.02;99529.88;4939550;29;20497;-86
2022/05/08 02:28:23;;;;;;;0.40;0.40;;;;;;;10.59;42.11;99519.09;4939732;29;20110;-88
2022/05/08 02:30:52;;;;;;;0.40;0.40;;;;;;;10.60;42.37;99519.91;4956376;29;20055;-86
2022/05/08 02:33:19;;;;;;;0.40;0.40;;;;;;;10.49;42.09;99512.63;4956343;29;20515;-86
2022/05/08 02:35:46;;;;;;;0.40;0.40;;;;;;;10.57;42.29;99517.69;4940363;29;20051;-86
2022/05/08 02:38:13;;;;;;;0.40;0.40;;;;;;;10.55;42.23;99509.78;4929144;29;20043;-86
2022/05/08 02:40:41;;;;;;;0.40;0.40;;;;;;;10.58;42.44;99514.75;4967974;29;20087;-86
2022/05/08 02:43:08;;;;;;;0.40;0.40;;;;;;;10.53;42.39;99508.38;4956694;29;20051;-86
2022/05/08 02:45:35;;;;;;;0.40;0.40;;;;;;;10.53;42.93;99511.09;4957087;29;20090;-88
2022/05/08 02:48:03;;;;;;;0.40;0.40;;;;;;;10.53;42.65;99516.47;4920406;29;20056;-86
2022/05/08 02:50:30;;;;;;;0.40;0.40;;;;;;;10.49;42.70;99512.63;4938821;29;20051;-87
2022/05/08 02:52:57;;;;;;;0.40;0.40;;;;;;;10.53;43.04;99503.84;4921214;29;20400;-86
2022/05/08 03:00:56;;;;;;;0.50;0.50;;;;;;;10.54;42.62;99518.16;4936780;29;20056;-87
2022/05/08 03:03:23;;;;;;;0.40;0.40;;;;;;;10.53;42.76;99517.31;4936520;29;20051;-88
2022/05/08 03:05:52;;;;;;;0.40;0.40;;;;;;;10.47;42.85;99510.13;4887777;29;20051;-88
2022/05/08 03:08:19;;;;;;;0.40;0.40;;;;;;;10.51;42.85;99524.81;4936438;29;20062;-88
2022/05/08 03:13:36;;;;;;;0.40;0.40;;;;;;;10.53;42.99;99521.88;4922059;29;20518;-86
2022/05/08 03:16:04;;;;;;;0.40;0.40;;;;;;;10.52;43.14;99512.16;4939887;29;20179;-86
2022/05/08 03:18:32;;;;;;;0.40;0.40;;;;;;;10.55;43.11;99522.47;4925441;29;20060;-86
2022/05/08 03:20:59;;;;;;;0.40;0.40;;;;;;;10.58;43.13;99530.09;4941792;29;20083;-88
2022/05/08 03:23:27;;;;;;;0.40;0.40;;;;;;;10.61;42.87;99526.97;4937424;29;20138;-89
2022/05/08 03:25:55;;;;;;;0.40;0.40;;;;;;;10.66;42.88;99528.94;4936038;29;20534;-87
2022/05/08 03:28:22;;;;;;;0.40;0.40;;;;;;;10.67;42.71;99526.03;4935782;29;20056;-86
2022/05/08 03:30:49;;;;;;;0.40;0.40;;;;;;;10.72;42.73;99530.72;4918900;29;20507;-86
2022/05/08 03:33:17;;;;;;;0.40;0.40;;;;;;;10.73;42.98;99525.09;4918975;29;20515;-87
2022/05/08 03:35:44;;;;;;;0.40;0.40;;;;;;;10.79;42.76;99534.97;4936373;29;20080;-87
2022/05/08 03:38:11;;;;;;;0.40;0.40;;;;;;;10.84;42.50;99524.28;4918852;29;20472;-87
2022/05/08 03:40:38;;;;;;;0.47;0.47;;;;;;;10.90;42.41;99529.81;4935801;29;20102;-85
2022/05/08 03:43:06;;;;;;;0.40;0.40;;;;;;;10.93;42.39;99524.75;4918619;29;20050;-87
2022/05/08 03:45:33;;;;;;;0.50;0.50;;;;;;;11.00;42.54;99532.75;4936003;29;20490;-87
2022/05/08 03:48:01;;;;;;;0.40;0.40;;;;;;;11.01;42.24;99523.56;4936114;29;20055;-88
2022/05/08 03:50:30;;;;;;;0.40;0.40;;;;;;;11.05;42.34;99524.75;4919406;29;20521;-86
2022/05/08 03:53:03;;;;;;;0.40;0.40;;;;;;;11.09;42.27;99531.34;4918987;29;20062;-87
2022/05/08 03:55:31;;;;;;;0.50;0.50;;;;;;;11.10;42.37;99527.59;4919333;29;20542;-87
2022/05/08 03:57:58;;;;;;;0.40;0.40;;;;;;;11.05;42.35;99520.19;4926507;29;20054;-87
2022/05/08 04:00:25;;;;;;;0.50;0.50;;;;;;;11.06;42.37;99523.69;4942405;29;20055;-88
2022/05/08 04:02:53;;;;;;;0.40;0.40;;;;;;;11.09;42.26;99525.94;4893993;29;20056;-88
2022/05/08 04:05:20;;;;;;;0.50;0.50;;;;;;;11.09;42.26;99525.94;4901870;29;20135;-88
2022/05/08 04:07:48;;;;;;;0.40;0.40;;;;;;;11.09;42.56;99520.56;4918309;29;20052;-87
2022/05/08 04:10:15;;;;;;;0.40;0.40;;;;;;;11.15;42.30;99521.47;4918736;29;20488;-88
2022/05/08 04:12:45;;;;;;;0.40;0.40;;;;;;;11.15;42.45;99506.09;4917479;29;20044;-87
2022/05/08 04:17:58;;;;;;;0.50;0.50;;;;;;;11.66;41.43;99517.16;4902882;29;20067;-87
2022/05/08 04:20:25;;;;;;;0.50;0.50;;;;;;;11.88;41.27;99503.84;4916691;29;20055;-88
2022/05/08 04:25:38;;;;;;;0.40;0.40;;;;;;;12.23;40.03;99509.13;4936303;29;20106;-87
2022/05/08 04:28:05;;;;;;;0.40;0.40;;;;;;;12.22;40.49;99520.19;4936361;29;20055;-88
2022/05/08 04:30:33;;;;;;;0.50;0.50;;;;;;;12.37;40.08;99506.91;4947454;29;20154;-86
2022/05/08 04:33:00;;;;;;;0.50;0.50;;;;;;;12.60;39.32;99521.38;4952465;29;20055;-87
2022/05/08 04:35:28;;;;;;;0.40;0.40;;;;;;;12.48;39.65;99511.47;4936195;29;20055;-88
2022/05/08 04:37:55;;;;;;;0.50;0.50;;;;;;;12.51;39.99;99513.66;4942279;29;20059;-87
2022/05/08 04:40:23;;;;;;;0.50;0.50;;;;;;;12.40;39.62;99505.59;4935879;29;20069;-86
2022/05/08 04:42:50;;;;;;;0.40;0.40;;;;;;;12.21;40.14;99507.72;4935701;29;20075;-86
2022/05/08 04:45:17;;;;;;;0.50;0.50;;;;;;;12.02;40.59;99494.38;4936582;29;20048;-85
2022/05/08 04:47:44;;;;;;;0.40;0.40;;;;;;;12.09;40.61;99500.47;4919571;29;20055;-89
2022/05/08 04:50:11;;;;;;;0.40;0.40;;;;;;;12.14;40.80;99505.97;4936402;29;20051;-88
2022/05/08 04:52:38;;;;;;;0.50;0.50;;;;;;;12.21;40.66;99507.72;4919170;29;20055;-89
2022/05/08 04:55:06;;;;;;;0.50;0.50;;;;;;;12.27;40.53;99491.31;4935987;29;20104;-88
2022/05/08 04:57:33;;;;;;;0.50;0.50;;;;;;;12.38;40.23;99505.84;4905914;29;20561;-88
2022/05/08 05:00:00;;;;;;;0.40;0.40;;;;;;;12.36;40.49;99497.16;4922715;29;20063;-88
2022/05/08 05:02:29;;;;;;;0.40;0.40;;;;;;;12.48;40.21;99497.06;4939613;29;20427;-87
2022/05/08 05:04:57;;;;;;;0.40;0.40;;;;;;;12.53;40.05;99506.13;4920609;29;20541;-87
2022/05/08 05:07:25;;;;;;;0.40;0.40;;;;;;;12.46;40.24;99481.09;4918306;29;20051;-87
2022/05/08 05:09:52;;;;;;;0.40;0.40;;;;;;;12.77;39.85;99487.00;4918490;29;20055;-88
2022/05/08 05:12:19;;;;;;;0.40;0.40;;;;;;;12.78;39.99;99496.75;4935192;29;20086;-89
2022/05/08 05:14:51;;;;;;;0.50;0.50;;;;;;;12.86;39.86;99490.09;4920968;29;20067;-87
2022/05/08 05:17:18;;;;;;;0.50;0.50;;;;;;;13.07;39.68;99485.84;4919908;29;20546;-88
2022/05/08 05:19:46;;;;;;;0.40;0.40;;;;;;;13.23;39.28;99487.66;4935391;29;20083;-88
2022/05/08 05:22:15;;;;;;;0.43;0.43;;;;;;;13.23;39.33;99477.66;4935158;29;20106;-87
2022/05/08 05:24:44;;;;;;;0.50;0.50;;;;;;;13.57;38.83;99483.00;4935359;29;20056;-86
2022/05/08 05:27:12;;;;;;;0.47;0.47;;;;;;;13.73;38.80;99475.88;4934498;29;20059;-87
2022/05/08 05:29:42;;;;;;;0.60;0.60;;;;;;;13.88;38.10;99476.03;4934922;29;20468;-87
2022/05/08 05:32:09;;;;;;;0.50;0.50;;;;;;;14.04;38.25;99471.59;4917839;29;20091;-88
2022/05/08 05:34:37;;;;;;;0.40;0.40;;;;;;;14.13;37.95;99452.97;4934789;29;20043;-88
2022/05/08 05:37:04;;;;;;;0.52;0.52;;;;;;;14.49;37.56;99475.00;4917723;29;20055;-87
2022/05/08 05:39:31;;;;;;;0.50;0.50;;;;;;;14.89;37.15;99465.56;4935743;29;20511;-88
2022/05/08 05:41:58;;;;;;;0.50;0.50;;;;;;;14.93;36.76;99447.63;4902615;29;20491;-88
2022/05/08 05:44:26;;;;;;;0.50;0.50;;;;;;;15.23;36.25;99466.03;4917548;29;20106;-88
2022/05/08 05:49:40;;;;;;;0.40;0.40;;;;;;;15.11;37.04;99457.25;4937287;29;20550;-88
2022/05/08 05:52:08;;;;;;;0.50;0.50;;;;;;;15.16;36.77;99455.38;4918950;29;20598;-88
2022/05/08 05:54:35;;;;;;;0.40;0.40;;;;;;;15.18;36.69;99450.50;4917575;29;20134;-88
2022/05/08 05:57:02;;;;;;;0.43;0.43;;;;;;;15.22;36.81;99455.41;4917767;29;20047;-87
2022/05/08 05:59:30;;;;;;;0.40;0.40;;;;;;;15.36;36.76;99470.97;4933599;29;20613;-89
2022/05/08 06:02:06;;;;;;;0.40;0.40;;;;;;;15.17;37.05;99451.59;4902914;29;20051;-88
2022/05/08 06:04:33;;;;;;;0.40;0.40;;;;;;;14.99;36.90;99443.88;4935485;29;20239;-87
2022/05/08 06:07:00;;;;;;;0.50;0.50;;;;;;;14.96;37.36;99436.22;4917775;29;20059;-88
2022/05/08 06:09:27;;;;;;;0.40;0.40;;;;;;;15.13;37.32;99458.63;4916343;29;20498;-88
2022/05/08 06:11:55;;;;;;;0.50;0.50;;;;;;;15.06;37.15;99428.13;4899124;29;20056;-87
2022/05/08 06:14:22;;;;;;;0.40;0.40;;;;;;;15.41;36.77;99445.72;4898490;29;20048;-87
2022/05/08 06:16:49;;;;;;;0.47;0.47;;;;;;;15.74;36.38;99452.66;4916636;29;20468;-87
2022/05/08 06:19:16;;;;;;;0.43;0.43;;;;;;;15.87;35.85;99447.81;4920865;29;20076;-88
2022/05/08 06:21:50;;;;;;;0.50;0.50;;;;;;;16.01;35.24;99444.28;4898359;29;20384;-87
2022/05/08 06:24:17;;;;;;;0.40;0.40;;;;;;;16.29;34.96;99444.88;4914747;29;20048;-87
2022/05/08 06:26:45;;;;;;;0.50;0.50;;;;;;;16.56;34.81;99443.78;4914682;29;20464;-87
2022/05/08 06:29:12;;;;;;;0.50;0.50;;;;;;;16.86;34.51;99443.81;4898274;29;20389;-88
2022/05/08 06:31:40;;;;;;;0.43;0.43;;;;;;;16.88;34.05;99447.03;4898094;29;20048;-87
2022/05/08 06:34:08;;;;;;;0.50;0.50;;;;;;;16.71;34.29;99429.31;4915513;29;20059;-86
2022/05/08 06:36:35;;;;;;;0.40;0.40;;;;;;;16.66;34.53;99450.06;4917444;29;20048;-88
2022/05/08 06:39:02;;;;;;;0.40;0.40;;;;;;;16.42;34.82;99429.91;4925990;29;20079;-89
2022/05/08 06:41:30;;;;;;;0.40;0.40;;;;;;;16.22;35.45;99433.44;4911369;29;20048;-89
2022/05/08 06:43:57;;;;;;;0.40;0.40;;;;;;;16.40;35.23;99423.91;4926161;29;20138;-89
2022/05/08 06:46:24;;;;;;;0.40;0.40;;;;;;;16.45;35.09;99443.78;4925963;29;20063;-89
2022/05/08 06:48:51;;;;;;;0.40;0.40;;;;;;;16.28;35.62;99434.25;4924346;29;20463;-90
2022/05/08 06:51:19;;;;;;;0.40;0.40;;;;;;;15.93;35.65;99424.97;4896262;29;20052;-87
2022/05/08 06:53:46;;;;;;;0.40;0.40;;;;;;;15.85;35.83;99410.00;4924883;29;20075;-89
2022/05/08 06:56:15;;;;;;;0.40;0.40;;;;;;;15.91;35.93;99417.06;4950912;29;20075;-88
2022/05/08 07:01:34;;;;;;;0.40;0.40;;;;;;;15.95;35.72;99414.59;4924163;29;20142;-88
2022/05/08 07:04:02;;;;;;;0.40;0.40;;;;;;;15.94;36.13;99445.66;4912758;29;20051;-89
2022/05/08 07:06:30;;;;;;;0.40;0.40;;;;;;;15.80;35.92;99413.50;4934621;29;20058;-88
2022/05/08 07:09:08;;;;;;;0.40;0.40;;;;;;;15.73;36.15;99406.69;4950973;29;20048;-87
2022/05/08 07:11:37;;;;;;;0.40;0.40;;;;;;;15.74;35.91;99413.75;4947550;29;20051;-87
2022/05/08 07:14:07;;;;;;;0.40;0.40;;;;;;;15.92;36.12;99415.97;4921090;29;20056;-85
2022/05/08 07:16:34;;;;;;;0.40;0.40;;;;;;;16.02;36.00;99410.53;4925131;29;20084;-86
2022/05/08 07:19:02;;;;;;;0.40;0.40;;;;;;;16.38;35.80;99418.75;4908356;29;20547;-89
2022/05/08 07:21:29;;;;;;;0.40;0.40;;;;;;;16.34;35.33;99409.47;4925185;29;20048;-88
2022/05/08 07:23:56;;;;;;;0.40;0.40;;;;;;;16.38;34.87;99410.56;4914139;29;20075;-87
2022/05/08 07:26:23;;;;;;;0.40;0.40;;;;;;;16.39;35.49;99400.50;4927042;29;20460;-87
2022/05/08 07:28:50;;;;;;;0.40;0.40;;;;;;;16.67;34.80;99426.34;4926466;29;20055;-85
2022/05/08 07:31:17;;;;;;;0.40;0.40;;;;;;;16.63;34.63;99403.44;4930488;29;20099;-86
2022/05/08 07:33:45;;;;;;;0.40;0.40;;;;;;;16.63;34.56;99449.78;4934619;29;20064;-87
2022/05/08 07:36:15;;;;;;;0.40;0.40;;;;;;;16.69;34.30;99418.72;4933218;29;20423;-86
2022/05/08 07:38:46;;;;;;;0.40;0.40;;;;;;;16.68;34.18;99406.16;4895585;29;20129;-87
2022/05/08 07:41:17;;;;;;;0.40;0.40;;;;;;;16.64;34.29;99418.72;4927327;29;20070;-88
2022/05/08 07:43:45;;;;;;;0.40;0.40;;;;;;;16.50;34.34;99414.91;4928594;29;20060;-84
2022/05/08 07:46:13;;;;;;;0.40;0.40;;;;;;;16.47;34.33;99419.00;4928567;29;20051;-89
2022/05/08 07:48:41;;;;;;;0.40;0.40;;;;;;;16.47;34.23;99398.03;4936674;29;20527;-87
2022/05/08 07:51:08;;;;;;;0.40;0.40;;;;;;;16.62;34.05;99390.94;4936591;29;20058;-88
2022/05/08 07:53:35;;;;;;;0.30;0.30;;;;;;;17.01;33.59;99412.13;4937321;29;20054;-87
2022/05/08 07:56:03;;;;;;;0.40;0.40;;;;;;;17.24;32.99;99413.41;4919906;29;20047;-87
2022/05/08 07:58:32;;;;;;;0.40;0.40;;;;;;;17.23;33.45;99406.34;4921219;29;20055;-87
2022/05/08 08:01:04;;;;;;;0.40;0.40;;;;;;;16.94;33.80;99390.63;4937657;29;20048;-88
2022/05/08 08:03:33;;;;;;;0.40;0.40;;;;;;;16.94;33.65;99401.53;4919070;29;20405;-86
2022/05/08 08:06:01;;;;;;;0.40;0.40;;;;;;;16.90;33.41;99408.63;4936255;29;20586;-87
2022/05/08 08:08:38;;;;;;;0.40;0.40;;;;;;;16.61;33.79;99414.66;4919261;29;20125;-86
2022/05/08 08:11:06;;;;;;;0.40;0.40;;;;;;;16.57;33.34;99375.41;4935682;29;20079;-88
2022/05/08 08:13:34;;;;;;;0.40;0.40;;;;;;;16.67;33.27;99391.72;4936321;29;20051;-86
2022/05/08 08:16:06;;;;;;;0.40;0.40;;;;;;;16.67;33.49;99394.47;4919182;29;20075;-87
2022/05/08 08:18:36;;;;;;;0.40;0.40;;;;;;;16.58;33.79;99376.22;4936048;29;20079;-86
2022/05/08 08:21:10;;;;;;;0.40;0.40;;;;;;;16.69;33.88;99366.94;4938698;29;20052;-87
2022/05/08 08:23:39;;;;;;;0.40;0.40;;;;;;;16.94;33.58;99400.69;4935689;29;20044;-87
2022/05/08 08:26:08;;;;;;;0.50;0.50;;;;;;;17.08;33.18;99380.75;4898860;29;20052;-88
2022/05/08 08:28:35;;;;;;;0.40;0.40;;;;;;;17.34;32.92;99405.19;4898732;29;20064;-88
2022/05/08 08:31:05;;;;;;;0.40;0.40;;;;;;;17.17;32.67;99370.09;4914978;29;20103;-87
2022/05/08 08:33:38;;;;;;;0.50;0.50;;;;;;;17.05;32.89;99370.41;4901887;29;20127;-88
2022/05/08 08:36:07;;;;;;;0.40;0.40;;;;;;;17.12;32.90;99364.66;4916784;29;20468;-88
2022/05/08 08:38:38;;;;;;;0.50;0.50;;;;;;;17.34;32.56;99375.19;4914551;29;20044;-87
2022/05/08 08:41:07;;;;;;;0.45;0.45;;;;;;;17.60;32.35;99362.25;4915424;29;20063;-87
2022/05/08 08:49:14;;;;;;;0.40;0.40;;;;;;;18.18;31.50;99375.25;4915072;29;20499;-88
2022/05/08 08:51:42;;;;;;;0.50;0.50;;;;;;;17.95;31.75;99341.28;4867823;29;20468;-87
2022/05/08 08:54:10;;;;;;;0.50;0.50;;;;;;;17.94;31.18;99350.56;4913892;29;20143;-86
2022/05/08 08:56:37;;;;;;;0.40;0.40;;;;;;;17.97;31.87;99341.81;4888045;29;20111;-87
2022/05/08 08:59:05;;;;;;;0.38;0.38;;;;;;;17.93;31.48;99357.16;4917647;29;20055;-86
2022/05/08 09:01:40;;;;;;;0.40;0.40;;;;;;;17.95;31.75;99355.75;4935123;29;20055;-87
2022/05/08 09:04:11;;;;;;;0.40;0.40;;;;;;;17.82;31.70;99371.94;4935591;29;20142;-86
2022/05/08 09:06:43;;;;;;;0.30;0.30;;;;;;;17.46;32.17;99372.94;4918915;29;20055;-85
2022/05/08 09:09:33;;;;;;;0.30;0.30;;;;;;;17.16;32.49;99364.91;4918599;29;20517;-86
2022/05/08 09:12:00;;;;;;;0.40;0.40;;;;;;;16.92;32.70;99362.81;4918296;29;20051;-85
2022/05/08 09:14:30;;;;;;;0.40;0.40;;;;;;;17.07;32.78;99345.59;4934788;29;20086;-86
2022/05/08 09:16:58;;;;;;;0.40;0.40;;;;;;;17.08;33.01;99341.75;4933372;29;20519;-85
2022/05/08 09:19:38;;;;;;;0.40;0.40;;;;;;;17.29;32.68;99326.94;4934266;29;20059;-87
2022/05/08 09:22:11;;;;;;;0.30;0.30;;;;;;;17.66;32.14;99322.91;4934874;29;20078;-87
2022/05/08 09:24:51;;;;;;;0.30;0.30;;;;;;;18.27;31.66;99346.19;4919173;29;20103;-87
2022/05/08 09:27:19;;;;;;;0.30;0.30;;;;;;;18.01;32.17;99331.97;4934219;29;20060;-88
2022/05/08 09:29:46;;;;;;;0.40;0.40;;;;;;;17.80;32.08;99344.97;4934254;29;20082;-87
2022/05/08 09:32:39;;;;;;;0.30;0.30;;;;;;;17.59;32.47;99303.28;4904083;29;20063;-87
2022/05/08 09:35:07;;;;;;;0.40;0.40;;;;;;;17.47;32.75;99333.66;4918449;29;20051;-88
2022/05/08 09:37:50;;;;;;;0.38;0.38;;;;;;;17.41;32.13;99333.97;4918465;29;20048;-87
2022/05/08 09:40:19;;;;;;;0.40;0.40;;;;;;;17.68;32.16;99344.47;4934655;29;20051;-85
2022/05/08 09:42:46;;;;;;;0.40;0.40;;;;;;;17.81;31.94;99348.50;4917297;29;20079;-87
2022/05/08 09:45:14;;;;;;;0.50;0.50;;;;;;;18.29;31.38;99333.06;4917245;29;20099;-85
2022/05/08 09:47:42;;;;;;;0.47;0.47;;;;;;;18.72;30.76;99321.44;4934288;29;20166;-86
2022/05/08 09:50:11;;;;;;;0.40;0.40;;;;;;;18.48;30.88;99297.63;4934239;29;20286;-85
2022/05/08 09:52:40;;;;;;;0.40;0.40;;;;;;;18.57;30.94;99327.88;4917188;29;20050;-86
2022/05/08 09:55:13;;;;;;;0.45;0.45;;;;;;;18.71;30.71;99311.59;4917584;29;20047;-86
2022/05/08 09:57:40;;;;;;;0.60;0.60;;;;;;;19.29;29.94;99295.03;4934205;29;20055;-85
2022/05/08 10:00:12;;;;;;;0.40;0.40;;;;;;;19.55;29.81;99325.59;4934051;29;20055;-85
2022/05/08 10:02:43;;;;;;;0.30;0.30;;;;;;;19.65;29.49;99319.97;4902617;29;20048;-88
2022/05/08 10:05:11;;;;;;;0.40;0.40;;;;;;;19.04;29.73;99288.81;4917473;29;20066;-87
2022/05/08 10:07:39;;;;;;;0.40;0.40;;;;;;;18.99;29.92;99313.50;4934149;29;20105;-85
2022/05/08 10:15:48;;;;;;;0.60;0.60;;;;;;;19.34;29.06;99284.00;4919402;29;20055;-86
2022/05/08 10:18:27;;;;;;;0.63;0.63;;;;;;;20.55;27.69;99259.59;4933821;29;20071;-84
2022/05/08 10:21:13;;;;;;;0.80;0.80;;;;;;;21.69;26.65;99265.06;4916511;29;20103;-86
2022/05/08 10:23:42;;;;;;;0.70;0.70;;;;;;;22.32;25.55;99271.47;4916741;29;20098;-87
2022/05/08 10:26:21;;;;;;;0.50;0.50;;;;;;;22.18;25.74;99277.03;4933757;29;20066;-87
2022/05/08 10:29:03;;;;;;;0.40;0.40;;;;;;;21.05;27.36;99265.13;4933579;29;20055;-86
2022/05/08 10:31:48;;;;;;;0.40;0.40;;;;;;;20.23;28.29;99285.94;4916723;29;20052;-86
2022/05/08 10:34:16;;;;;;;0.70;0.70;;;;;;;20.50;27.74;99232.25;4933165;29;20056;-87
2022/05/08 10:37:12;;;;;;;0.50;0.50;;;;;;;21.15;27.36;99251.19;4938039;29;20138;-87
2022/05/08 10:39:43;;;;;;;0.50;0.50;;;;;;;20.92;27.37;99222.91;4908528;29;20051;-86
2022/05/08 10:42:35;;;;;;;0.70;0.70;;;;;;;21.20;27.36;99244.78;4937752;29;20135;-87
2022/05/08 10:45:05;;;;;;;0.75;0.75;;;;;;;21.26;27.48;99245.47;4945569;28;20577;-87
2022/05/08 10:47:33;;;;;;;0.40;0.40;;;;;;;20.59;28.17;99232.38;4937551;29;20048;-86
2022/05/08 10:50:08;;;;;;;0.60;0.60;;;;;;;21.43;27.33;99251.16;4941971;29;20079;-87
2022/05/08 10:52:44;;;;;;;0.60;0.60;;;;;;;22.20;26.33;99241.00;4954374;29;20112;-87
2022/05/08 10:55:14;;;;;;;0.40;0.40;;;;;;;21.23;27.32;99232.38;4935031;29;20048;-88
2022/05/08 10:57:46;;;;;;;0.50;0.50;;;;;;;21.19;27.92;99212.97;4946925;29;20066;-87
2022/05/08 11:00:30;;;;;;;0.40;0.40;;;;;;;20.74;28.44;99223.84;4936533;29;20051;-88
2022/05/08 11:03:01;;;;;;;0.40;0.40;;;;;;;20.22;29.24;99270.59;4904590;29;20048;-88
2022/05/08 11:05:32;;;;;;;0.40;0.40;;;;;;;19.78;29.76;99208.09;4904479;29;20047;-88
2022/05/08 11:08:02;;;;;;;0.40;0.40;;;;;;;19.81;30.10;99235.69;4937028;29;20102;-87
2022/05/08 11:10:39;;;;;;;0.50;0.50;;;;;;;19.94;30.03;99227.81;4937001;29;20071;-87
2022/05/08 11:13:12;;;;;;;0.50;0.50;;;;;;;20.37;29.53;99205.66;4920917;29;20048;-87
2022/05/08 11:15:46;;;;;;;0.60;0.60;;;;;;;21.46;28.26;99198.34;4922165;29;20056;-87
2022/05/08 11:18:17;;;;;;;0.63;0.63;;;;;;;21.83;27.57;99215.56;4937828;29;20060;-88
2022/05/08 11:20:50;;;;;;;0.60;0.60;;;;;;;21.12;28.66;99213.41;4938480;29;20495;-89
2022/05/08 11:23:23;;;;;;;0.32;0.32;;;;;;;20.36;29.57;99270.63;4938030;29;20048;-87
2022/05/08 11:26:01;;;;;;;0.40;0.40;;;;;;;19.84;30.19;99198.69;4938017;29;20142;-87
2022/05/08 11:28:29;;;;;;;0.40;0.40;;;;;;;20.47;29.63;99208.19;4936668;29;20082;-87
2022/05/08 11:30:58;;;;;;;0.50;0.50;;;;;;;20.63;29.74;99197.75;4937002;29;20422;-87
2022/05/08 11:36:28;;;;;;;0.70;0.70;;;;;;;21.62;29.15;99194.13;4936099;29;20134;-88
2022/05/08 11:39:04;;;;;;;0.60;0.60;;;;;;;22.72;27.35;99199.97;4937031;29;20054;-87
2022/05/08 11:41:36;;;;;;;0.52;0.52;;;;;;;22.48;27.55;99187.44;4936662;29;20052;-88
2022/05/08 11:44:12;;;;;;;0.30;0.30;;;;;;;21.93;27.89;99220.81;4919636;29;20056;-87
2022/05/08 11:46:45;;;;;;;0.75;0.75;;;;;;;21.17;28.99;99193.28;4922848;29;20056;-88
2022/05/08 11:49:20;;;;;;;0.40;0.40;;;;;;;21.36;28.91;99190.34;4953890;29;20087;-87
2022/05/08 11:51:58;;;;;;;0.80;0.80;;;;;;;22.78;27.36;99195.91;4952051;29;20115;-86
2022/05/08 11:54:32;;;;;;;0.57;0.57;;;;;;;23.54;26.06;99216.72;4938515;29;20058;-86
2022/05/08 11:57:23;;;;;;;0.40;0.40;;;;;;;22.30;27.00;99207.75;4919603;29;20090;-87
2022/05/08 12:00:08;;;;;;;0.30;0.30;;;;;;;20.75;29.27;99154.97;4936872;29;20400;-87
2022/05/08 12:02:52;;;;;;;0.30;0.30;;;;;;;20.00;30.22;99182.78;4936674;29;20495;-87
2022/05/08 12:05:24;;;;;;;0.30;0.30;;;;;;;19.40;31.60;99180.78;4921359;29;20062;-86
2022/05/08 12:07:52;;;;;;;0.30;0.30;;;;;;;19.15;32.08;99174.59;4935697;29;20051;-87
2022/05/08 12:10:34;;;;;;;0.30;0.30;;;;;;;18.96;31.88;99163.66;4936074;29;20051;-87
2022/05/08 12:13:36;;;;;;;0.30;0.30;;;;;;;18.82;32.16;99146.38;4919290;29;20047;-87
2022/05/08 12:16:15;;;;;;;0.30;0.30;;;;;;;18.94;32.14;99165.88;4936062;29;20060;-87
2022/05/08 12:19:21;;;;;;;0.30;0.30;;;;;;;18.95;32.30;99158.50;4935669;29;20055;-87
2022/05/08 12:21:48;;;;;;;0.30;0.30;;;;;;;18.53;32.98;99166.38;4935323;29;20063;-87